createdAt,value
2022-10-18T00:00:06.774Z,15.97
2022-10-18T00:02:34.855Z,15.99
2022-10-18T00:05:01.283Z,15.95
2022-10-18T00:07:27.686Z,15.95
2022-10-18T00:09:54.185Z,15.96
2022-10-18T00:12:20.647Z,15.95
2022-10-18T00:14:48.864Z,15.94
2022-10-18T00:17:15.199Z,15.95
2022-10-18T00:19:41.564Z,15.94
2022-10-18T00:22:07.888Z,15.94
2022-10-18T00:24:34.275Z,15.95
2022-10-18T00:27:00.593Z,15.94
2022-10-18T00:29:27.021Z,15.93
2022-10-18T00:31:53.421Z,15.92
2022-10-18T00:34:19.814Z,15.94
2022-10-18T00:36:46.415Z,15.94
2022-10-18T00:39:17.772Z,15.93
2022-10-18T00:41:44.660Z,15.94
2022-10-18T00:44:10.983Z,15.92
2022-10-18T00:46:38.571Z,15.90
2022-10-18T00:49:11.619Z,15.92
2022-10-18T00:51:53.369Z,15.90
2022-10-18T00:54:20.680Z,15.91
2022-10-18T00:56:47.022Z,15.90
2022-10-18T00:59:14.676Z,15.87
2022-10-18T01:01:41.032Z,15.86
2022-10-18T01:04:07.490Z,15.85
2022-10-18T01:06:40.413Z,15.88
2022-10-18T01:09:13.245Z,15.92
2022-10-18T01:11:54.936Z,15.86
2022-10-18T01:14:25.790Z,15.79
2022-10-18T01:16:58.957Z,15.76
2022-10-18T01:19:28.255Z,15.79
2022-10-18T01:21:58.312Z,15.83
2022-10-18T01:24:24.607Z,15.82
2022-10-18T01:26:53.748Z,15.83
2022-10-18T01:29:20.051Z,15.82
2022-10-18T01:31:48.283Z,15.82
2022-10-18T01:34:16.823Z,15.83
2022-10-18T01:37:03.863Z,15.82
2022-10-18T01:39:32.973Z,15.80
2022-10-18T01:42:01.587Z,15.79
2022-10-18T01:44:29.766Z,15.79
2022-10-18T01:46:56.885Z,15.79
2022-10-18T01:49:24.171Z,15.77
2022-10-18T01:51:50.508Z,15.77
2022-10-18T01:54:19.157Z,15.77
2022-10-18T01:56:52.192Z,15.77
2022-10-18T01:59:31.052Z,15.77
2022-10-18T02:02:06.898Z,15.76
2022-10-18T02:04:54.339Z,15.76
2022-10-18T02:07:28.862Z,15.75
2022-10-18T02:10:10.716Z,15.74
2022-10-18T02:12:39.679Z,15.73
2022-10-18T02:15:07.562Z,15.72
2022-10-18T02:17:34.020Z,15.72
2022-10-18T02:20:02.300Z,15.72
2022-10-18T02:22:32.578Z,15.72
2022-10-18T02:25:02.366Z,15.72
2022-10-18T02:27:28.843Z,15.70
2022-10-18T02:29:55.215Z,15.70
2022-10-18T02:32:29.786Z,15.69
2022-10-18T02:35:06.070Z,15.68
2022-10-18T02:37:35.188Z,15.69
2022-10-18T02:40:03.666Z,15.69
2022-10-18T02:42:34.236Z,15.68
2022-10-18T02:45:00.680Z,15.69
2022-10-18T02:47:27.004Z,15.69
2022-10-18T02:49:53.337Z,15.70
2022-10-18T02:52:19.708Z,15.70
2022-10-18T02:54:46.053Z,15.71
2022-10-18T02:57:12.408Z,15.71
2022-10-18T02:59:38.749Z,15.70
2022-10-18T03:02:05.127Z,15.70
2022-10-18T03:04:31.541Z,15.70
2022-10-18T03:06:57.895Z,15.69
2022-10-18T03:09:24.316Z,15.67
2022-10-18T03:11:50.639Z,15.68
2022-10-18T03:14:17.086Z,15.69
2022-10-18T03:16:43.399Z,15.69
2022-10-18T03:19:09.788Z,15.69
2022-10-18T03:21:36.123Z,15.69
2022-10-18T03:24:02.793Z,15.68
2022-10-18T03:26:29.152Z,15.68
2022-10-18T03:28:55.517Z,15.67
2022-10-18T03:31:21.982Z,15.68
2022-10-18T03:33:48.411Z,15.68
2022-10-18T03:36:15.119Z,15.67
2022-10-18T03:38:42.127Z,15.67
2022-10-18T03:41:08.488Z,15.67
2022-10-18T03:43:34.828Z,15.65
2022-10-18T03:46:01.593Z,15.65
2022-10-18T03:48:27.997Z,15.66
2022-10-18T03:50:54.415Z,15.65
2022-10-18T03:53:20.774Z,15.66
2022-10-18T03:55:51.303Z,15.66
2022-10-18T03:58:17.670Z,15.67
2022-10-18T04:00:44.081Z,15.67
2022-10-18T04:03:10.424Z,15.66
2022-10-18T04:05:36.895Z,15.67
2022-10-18T04:08:03.342Z,15.65
2022-10-18T04:10:29.721Z,15.64
2022-10-18T04:12:56.120Z,15.65
2022-10-18T04:15:22.493Z,15.68
2022-10-18T04:17:48.968Z,15.65
2022-10-18T04:20:15.421Z,15.65
2022-10-18T04:22:41.945Z,15.62
2022-10-18T04:25:08.489Z,15.60
2022-10-18T04:27:35.239Z,15.62
2022-10-18T04:30:01.945Z,15.61
2022-10-18T04:32:29.356Z,15.63
2022-10-18T04:34:55.777Z,15.63
2022-10-18T04:37:22.246Z,15.62
2022-10-18T04:39:51.366Z,15.62
2022-10-18T04:42:20.313Z,15.61
2022-10-18T04:44:46.674Z,15.59
2022-10-18T04:47:13.151Z,15.60
2022-10-18T04:49:39.488Z,15.60
2022-10-18T04:52:06.219Z,15.61
2022-10-18T04:54:32.562Z,15.60
2022-10-18T04:56:58.912Z,15.60
2022-10-18T04:59:25.335Z,15.60
2022-10-18T05:01:51.768Z,15.60
2022-10-18T05:04:18.278Z,15.60
2022-10-18T05:06:44.690Z,15.59
2022-10-18T05:09:11.083Z,15.59
2022-10-18T05:11:37.455Z,15.60
2022-10-18T05:14:03.942Z,15.65
2022-10-18T05:16:31.898Z,15.59
2022-10-18T05:18:58.362Z,15.59
2022-10-18T05:21:24.716Z,15.57
2022-10-18T05:23:51.085Z,15.63
2022-10-18T05:26:17.450Z,15.61
2022-10-18T05:28:43.922Z,15.60
2022-10-18T05:31:11.588Z,15.56
2022-10-18T05:33:38.020Z,15.66
2022-10-18T05:36:04.436Z,15.62
2022-10-18T05:38:31.032Z,15.59
2022-10-18T05:40:57.838Z,15.57
2022-10-18T05:43:27.049Z,15.51
2022-10-18T05:45:53.388Z,15.52
2022-10-18T05:48:19.780Z,15.52
2022-10-18T05:50:46.138Z,15.53
2022-10-18T05:53:24.764Z,15.54
2022-10-18T05:56:01.915Z,15.55
2022-10-18T05:58:28.495Z,15.54
2022-10-18T06:00:54.885Z,15.57
2022-10-18T06:03:21.232Z,15.53
2022-10-18T06:05:47.646Z,15.56
2022-10-18T06:08:14.124Z,15.51
2022-10-18T06:10:40.519Z,15.46
2022-10-18T06:13:06.979Z,15.47
2022-10-18T06:15:33.377Z,15.51
2022-10-18T06:17:59.745Z,15.47
2022-10-18T06:20:26.125Z,15.47
2022-10-18T06:22:53.481Z,15.47
2022-10-18T06:25:19.852Z,15.49
2022-10-18T06:27:46.300Z,15.48
2022-10-18T06:30:12.715Z,15.48
2022-10-18T06:32:39.089Z,15.49
2022-10-18T06:35:05.710Z,15.50
2022-10-18T06:37:32.367Z,15.49
2022-10-18T06:39:58.958Z,15.49
2022-10-18T06:42:25.313Z,15.50
2022-10-18T06:44:51.740Z,15.53
2022-10-18T06:47:18.097Z,15.49
2022-10-18T06:49:44.456Z,15.49
2022-10-18T06:52:10.837Z,15.57
2022-10-18T06:54:37.208Z,15.52
2022-10-18T06:57:03.646Z,15.55
2022-10-18T06:59:31.343Z,15.53
2022-10-18T07:01:58.005Z,15.54
2022-10-18T07:04:24.438Z,15.52
2022-10-18T07:06:53.675Z,15.53
2022-10-18T07:09:20.024Z,15.58
2022-10-18T07:11:46.376Z,15.58
2022-10-18T07:14:16.342Z,15.56
2022-10-18T07:16:43.010Z,15.65
2022-10-18T07:19:09.451Z,15.56
2022-10-18T07:21:36.328Z,15.66
2022-10-18T07:24:02.758Z,15.66
2022-10-18T07:26:30.474Z,15.69
2022-10-18T07:28:59.049Z,15.55
2022-10-18T07:31:25.967Z,15.63
2022-10-18T07:33:52.494Z,15.63
2022-10-18T07:36:19.156Z,15.62
2022-10-18T07:38:45.581Z,15.65
2022-10-18T07:41:12.546Z,15.69
2022-10-18T07:43:41.851Z,15.66
2022-10-18T07:46:08.183Z,15.68
2022-10-18T07:48:34.550Z,15.73
2022-10-18T07:51:01.557Z,15.83
2022-10-18T07:53:28.632Z,15.86
2022-10-18T07:56:04.592Z,15.81
2022-10-18T07:58:34.117Z,15.84
2022-10-18T08:01:04.292Z,15.91
2022-10-18T08:03:30.770Z,15.86
2022-10-18T08:05:57.300Z,15.87
2022-10-18T08:08:24.122Z,15.99
2022-10-18T08:10:50.663Z,15.98
2022-10-18T08:13:17.317Z,16.04
2022-10-18T08:15:44.159Z,15.91
2022-10-18T08:18:10.603Z,15.95
2022-10-18T08:20:37.286Z,15.92
2022-10-18T08:23:04.705Z,16.03
2022-10-18T08:25:31.150Z,15.98
2022-10-18T08:27:57.611Z,16.03
2022-10-18T08:30:23.969Z,16.05
2022-10-18T08:32:50.329Z,16.07
2022-10-18T08:35:16.678Z,16.05
2022-10-18T08:37:43.563Z,16.16
2022-10-18T08:40:10.826Z,16.15
2022-10-18T08:42:37.189Z,16.12
2022-10-18T08:45:12.604Z,16.12
2022-10-18T08:47:51.967Z,16.17
2022-10-18T08:50:20.255Z,16.10
2022-10-18T08:52:59.956Z,16.13
2022-10-18T08:55:42.123Z,16.23
2022-10-18T08:58:14.652Z,16.24
2022-10-18T09:00:43.669Z,16.20
2022-10-18T09:03:28.863Z,16.19
2022-10-18T09:06:01.084Z,16.30
2022-10-18T09:08:30.460Z,16.27
2022-10-18T09:11:09.576Z,16.27
2022-10-18T09:13:54.747Z,16.36
2022-10-18T09:16:30.379Z,16.44
2022-10-18T09:19:06.176Z,16.50
2022-10-18T09:21:35.634Z,16.60
2022-10-18T09:24:09.295Z,16.65
2022-10-18T09:26:43.368Z,16.62
2022-10-18T09:29:16.011Z,16.69
2022-10-18T09:31:42.506Z,16.70
2022-10-18T09:34:13.971Z,16.74
2022-10-18T09:36:40.524Z,16.69
2022-10-18T09:39:18.793Z,16.65
2022-10-18T09:41:53.240Z,16.66
2022-10-18T09:44:19.878Z,16.71
2022-10-18T09:46:51.291Z,16.64
2022-10-18T09:49:21.882Z,16.66
2022-10-18T09:51:49.364Z,16.63
2022-10-18T09:54:25.839Z,16.57
2022-10-18T09:56:57.403Z,16.53
2022-10-18T09:59:23.780Z,16.57
2022-10-18T10:01:50.127Z,16.62
2022-10-18T10:04:16.466Z,16.59
2022-10-18T10:06:49.316Z,16.65
2022-10-18T10:09:17.360Z,16.63
2022-10-18T10:11:45.329Z,16.67
2022-10-18T10:16:50.018Z,16.53
2022-10-18T10:19:39.486Z,16.54
2022-10-18T10:22:09.865Z,16.54
2022-10-18T10:24:49.352Z,16.49
2022-10-18T10:27:17.982Z,16.44
2022-10-18T10:29:47.217Z,16.48
2022-10-18T10:32:18.086Z,16.51
2022-10-18T10:34:44.998Z,16.59
2022-10-18T10:37:36.383Z,16.64
2022-10-18T10:40:18.739Z,16.56
2022-10-18T10:43:18.424Z,16.58
2022-10-18T10:45:56.375Z,16.65
2022-10-18T10:48:23.872Z,16.67
2022-10-18T10:50:59.445Z,16.70
2022-10-18T10:53:30.617Z,16.66
2022-10-18T10:55:58.170Z,16.68
2022-10-18T10:58:26.020Z,16.77
2022-10-18T11:00:52.400Z,16.78
2022-10-18T11:03:29.398Z,16.80
2022-10-18T11:05:57.731Z,16.81
2022-10-18T11:08:29.352Z,16.92
2022-10-18T11:11:13.647Z,16.89
2022-10-18T11:13:56.981Z,16.91
2022-10-18T11:16:42.956Z,16.96
2022-10-18T11:19:12.443Z,17.03
2022-10-18T11:21:39.859Z,17.08
2022-10-18T11:24:08.923Z,17.15
2022-10-18T11:26:42.158Z,17.23
2022-10-18T11:29:18.648Z,17.34
2022-10-18T11:31:55.528Z,17.36
2022-10-18T11:34:36.961Z,17.27
2022-10-18T11:37:32.324Z,17.37
2022-10-18T11:40:13.162Z,17.31
2022-10-18T11:42:51.783Z,17.26
2022-10-18T11:45:38.390Z,17.20
2022-10-18T11:48:23.564Z,17.36
2022-10-18T11:51:08.436Z,17.44
2022-10-18T11:53:37.820Z,17.53
2022-10-18T11:56:07.275Z,17.57
2022-10-18T11:58:55.092Z,17.73
2022-10-18T12:01:33.809Z,17.88
2022-10-18T12:04:09.192Z,17.80
2022-10-18T12:06:40.091Z,17.73
2022-10-18T12:09:12.498Z,17.92
2022-10-18T12:11:47.238Z,18.06
2022-10-18T12:14:27.077Z,18.10
2022-10-18T12:17:20.206Z,18.13
2022-10-18T12:19:43.692Z,18.09
2022-10-18T12:22:20.065Z,18.13
2022-10-18T12:24:46.430Z,18.03
2022-10-18T12:27:14.328Z,18.10
2022-10-18T12:30:00.967Z,18.23
2022-10-18T12:32:31.814Z,18.11
2022-10-18T12:35:01.603Z,18.08
2022-10-18T12:37:40.279Z,18.08
2022-10-18T12:40:12.405Z,18.02
2022-10-18T12:42:43.060Z,18.08
2022-10-18T12:45:28.179Z,18.01
2022-10-18T12:47:55.415Z,17.96
2022-10-18T12:50:32.689Z,17.91
2022-10-18T12:53:02.622Z,17.93
2022-10-18T12:55:36.700Z,17.90
2022-10-18T12:58:04.763Z,17.95
2022-10-18T13:00:31.111Z,17.91
2022-10-18T13:03:20.910Z,17.78
2022-10-18T13:05:56.088Z,17.86
2022-10-18T13:08:29.158Z,17.85
2022-10-18T13:11:04.409Z,17.90
2022-10-18T13:13:50.593Z,17.98
2022-10-18T13:16:23.171Z,17.93
2022-10-18T13:18:52.698Z,17.85
2022-10-18T13:21:23.025Z,17.84
2022-10-18T13:23:49.362Z,17.77
2022-10-18T13:26:15.755Z,17.83
2022-10-18T13:28:42.145Z,17.79
2022-10-18T13:31:14.668Z,17.74
2022-10-18T13:33:41.885Z,17.65
2022-10-18T13:36:22.512Z,17.70
2022-10-18T13:38:57.596Z,17.91
2022-10-18T13:41:25.930Z,17.80
2022-10-18T13:43:52.631Z,17.85
2022-10-18T13:46:42.600Z,17.89
2022-10-18T13:49:27.468Z,17.97
2022-10-18T13:52:12.210Z,17.98
2022-10-18T13:54:47.512Z,18.02
2022-10-18T13:57:32.550Z,18.06
2022-10-18T14:00:17.979Z,18.05
2022-10-18T14:03:03.483Z,17.80
2022-10-18T14:05:48.820Z,17.86
2022-10-18T14:08:17.485Z,17.80
2022-10-18T14:11:03.283Z,17.79
2022-10-18T14:13:42.587Z,17.70
2022-10-18T14:16:26.948Z,17.62
2022-10-18T14:18:57.240Z,17.86
2022-10-18T14:21:31.404Z,17.82
2022-10-18T14:23:58.048Z,17.79
2022-10-18T14:26:24.480Z,17.81
2022-10-18T14:29:06.984Z,17.68
2022-10-18T14:31:34.601Z,17.83
2022-10-18T14:34:01.159Z,17.92
2022-10-18T14:36:30.592Z,17.94
2022-10-18T14:38:58.727Z,17.69
2022-10-18T14:41:26.289Z,17.75
2022-10-18T14:43:53.912Z,17.89
2022-10-18T14:46:28.992Z,17.66
2022-10-18T14:48:57.503Z,17.91
2022-10-18T14:51:24.127Z,17.97
2022-10-18T14:53:50.568Z,17.96
2022-10-18T14:56:21.168Z,17.72
2022-10-18T14:58:47.776Z,17.61
2022-10-18T15:01:18.572Z,17.52
2022-10-18T15:03:45.205Z,17.50
2022-10-18T15:06:15.948Z,17.49
2022-10-18T15:08:42.812Z,17.47
2022-10-18T15:11:14.131Z,17.48
2022-10-18T15:13:49.914Z,17.36
2022-10-18T15:16:17.722Z,17.40
2022-10-18T15:18:58.339Z,17.55
2022-10-18T15:21:25.084Z,17.37
2022-10-18T15:23:52.071Z,17.45
2022-10-18T15:26:24.475Z,17.46
2022-10-18T15:28:53.489Z,17.45
2022-10-18T15:31:24.740Z,17.54
2022-10-18T15:33:51.634Z,17.59
2022-10-18T15:36:44.593Z,17.41
2022-10-18T15:39:13.769Z,17.31
2022-10-18T15:41:40.148Z,17.30
2022-10-18T15:44:25.437Z,17.13
2022-10-18T15:46:53.546Z,17.07
2022-10-18T15:49:38.085Z,17.20
2022-10-18T15:52:23.196Z,17.04
2022-10-18T15:54:49.557Z,17.07
2022-10-18T15:57:18.191Z,17.09
2022-10-18T15:59:56.752Z,16.95
2022-10-18T16:02:23.775Z,16.98
2022-10-18T16:04:50.168Z,17.16
2022-10-18T16:07:16.641Z,17.18
2022-10-18T16:09:43.141Z,17.11
2022-10-18T16:12:09.564Z,17.12
2022-10-18T16:14:36.159Z,17.05
2022-10-18T16:17:04.211Z,16.85
2022-10-18T16:19:31.144Z,16.83
2022-10-18T16:21:59.192Z,17.07
2022-10-18T16:24:27.717Z,17.21
2022-10-18T16:26:54.184Z,17.28
2022-10-18T16:29:24.403Z,17.31
2022-10-18T16:31:53.410Z,17.36
2022-10-18T16:34:19.849Z,17.37
2022-10-18T16:36:46.795Z,17.38
2022-10-18T16:39:17.580Z,17.38
2022-10-18T16:41:44.434Z,17.41
2022-10-18T16:44:10.914Z,17.41
2022-10-18T16:46:37.344Z,17.38
2022-10-18T16:49:04.472Z,17.35
2022-10-18T16:51:30.971Z,17.21
2022-10-18T16:53:57.753Z,17.20
2022-10-18T16:56:28.169Z,17.32
2022-10-18T16:58:54.539Z,17.43
2022-10-18T17:01:21.611Z,17.47
2022-10-18T17:03:48.436Z,17.45
2022-10-18T17:06:17.861Z,17.52
2022-10-18T17:08:44.692Z,17.75
2022-10-18T17:11:11.718Z,17.18
2022-10-18T17:13:38.205Z,17.23
2022-10-18T17:16:05.338Z,17.28
2022-10-18T17:18:32.088Z,17.27
2022-10-18T17:21:03.106Z,17.34
2022-10-18T17:23:29.910Z,17.31
2022-10-18T17:26:04.954Z,17.33
2022-10-18T17:28:34.050Z,17.32
2022-10-18T17:31:00.536Z,17.33
2022-10-18T17:33:26.891Z,17.27
2022-10-18T17:35:53.295Z,17.22
2022-10-18T17:38:19.637Z,17.21
2022-10-18T17:40:46.031Z,17.19
2022-10-18T17:43:13.599Z,17.18
2022-10-18T17:46:09.352Z,17.15
2022-10-18T17:48:35.677Z,17.18
2022-10-18T17:51:06.434Z,17.13
2022-10-18T17:53:34.762Z,17.09
2022-10-18T17:56:02.722Z,17.09
2022-10-18T17:58:29.909Z,17.05
2022-10-18T18:00:56.292Z,17.06
2022-10-18T18:03:22.749Z,17.00
2022-10-18T18:05:49.196Z,16.95
2022-10-18T18:08:15.788Z,16.90
2022-10-18T18:10:42.320Z,16.95
2022-10-18T18:13:08.824Z,16.90
2022-10-18T18:15:35.507Z,16.83
2022-10-18T18:18:01.817Z,16.80
2022-10-18T18:20:28.236Z,16.78
2022-10-18T18:22:54.564Z,16.72
2022-10-18T18:25:20.970Z,16.69
2022-10-18T18:27:47.304Z,16.71
2022-10-18T18:30:15.234Z,16.63
2022-10-18T18:32:41.663Z,16.64
2022-10-18T18:35:08.046Z,16.61
2022-10-18T18:37:34.405Z,16.59
2022-10-18T18:40:00.760Z,16.53
2022-10-18T18:42:27.163Z,16.44
2022-10-18T18:44:53.524Z,16.40
2022-10-18T18:47:21.793Z,16.39
2022-10-18T18:49:48.600Z,16.38
2022-10-18T18:52:14.996Z,16.34
2022-10-18T18:54:41.369Z,16.27
2022-10-18T18:57:07.922Z,16.31
2022-10-18T18:59:34.397Z,16.26
2022-10-18T19:02:00.741Z,16.20
2022-10-18T19:04:28.924Z,16.18
2022-10-18T19:06:55.340Z,16.15
2022-10-18T19:09:22.723Z,16.16
2022-10-18T19:11:50.391Z,16.12
2022-10-18T19:14:16.821Z,16.08
2022-10-18T19:16:47.680Z,16.05
2022-10-18T19:19:15.425Z,16.00
2022-10-18T19:21:45.930Z,15.95
2022-10-18T19:24:12.396Z,15.94
2022-10-18T19:26:44.391Z,15.92
2022-10-18T19:29:10.829Z,15.90
2022-10-18T19:31:38.011Z,15.88
2022-10-18T19:34:05.620Z,15.85
2022-10-18T19:36:32.429Z,15.81
2022-10-18T19:38:58.874Z,15.81
2022-10-18T19:43:57.212Z,15.74
2022-10-18T19:46:23.770Z,15.70
2022-10-18T19:48:50.424Z,15.68
2022-10-18T19:51:20.308Z,15.66
2022-10-18T19:53:50.582Z,15.65
2022-10-18T19:56:18.419Z,15.67
2022-10-18T19:58:45.156Z,15.30
2022-10-18T20:01:11.610Z,15.33
2022-10-18T20:03:38.160Z,15.34
2022-10-18T20:06:04.575Z,15.34
2022-10-18T20:08:32.484Z,15.36
2022-10-18T20:11:09.450Z,15.36
2022-10-18T20:13:36.306Z,15.33
2022-10-18T20:16:03.742Z,15.32
2022-10-18T20:18:30.117Z,15.29
2022-10-18T20:20:56.515Z,15.22
2022-10-18T20:23:22.955Z,15.18
2022-10-18T20:26:02.741Z,15.18
2022-10-18T20:28:29.636Z,15.23
2022-10-18T20:31:03.681Z,15.20
2022-10-18T20:33:30.318Z,15.14
2022-10-18T20:38:33.111Z,15.12
2022-10-18T20:41:18.944Z,15.09
2022-10-18T20:43:50.102Z,15.06
2022-10-18T20:46:16.487Z,15.09
2022-10-18T20:48:42.944Z,15.08
2022-10-18T20:51:12.549Z,14.82
2022-10-18T20:53:39.748Z,14.86
2022-10-18T20:56:13.422Z,14.88
2022-10-18T20:58:41.138Z,14.93
2022-10-18T21:01:10.553Z,14.79
2022-10-18T21:03:41.578Z,14.83
2022-10-18T21:06:14.876Z,14.86
2022-10-18T21:08:41.327Z,14.88
2022-10-18T21:11:08.322Z,14.78
2022-10-18T21:13:34.915Z,14.82
2022-10-18T21:16:01.848Z,14.83
2022-10-18T21:18:29.667Z,14.81
2022-10-18T21:21:05.849Z,14.79
2022-10-18T21:23:32.257Z,14.77
2022-10-18T21:25:58.597Z,14.74
2022-10-18T21:28:25.061Z,14.68
2022-10-18T21:30:51.601Z,14.65
2022-10-18T21:33:17.989Z,14.69
2022-10-18T21:35:44.331Z,14.70
2022-10-18T21:38:10.702Z,14.65
2022-10-18T21:40:39.468Z,14.60
2022-10-18T21:43:05.821Z,14.52
2022-10-18T21:45:32.158Z,14.55
2022-10-18T21:47:58.653Z,14.50
2022-10-18T21:50:25.173Z,14.52
2022-10-18T21:52:51.569Z,14.46
2022-10-18T21:55:17.937Z,14.44
2022-10-18T21:57:44.377Z,14.43
2022-10-18T22:00:11.223Z,14.42
2022-10-18T22:02:37.539Z,14.37
2022-10-18T22:05:07.083Z,14.33
2022-10-18T22:07:36.479Z,14.30
2022-10-18T22:10:03.170Z,14.25
2022-10-18T22:12:29.569Z,14.25
2022-10-18T22:14:55.984Z,14.26
2022-10-18T22:17:23.583Z,14.19
2022-10-18T22:19:49.957Z,14.17
2022-10-18T22:22:16.307Z,14.18
2022-10-18T22:24:42.699Z,14.11
2022-10-18T22:27:09.100Z,14.15
2022-10-18T22:29:35.454Z,14.08
2022-10-18T22:32:01.841Z,14.09
2022-10-18T22:34:28.379Z,14.04
2022-10-18T22:36:55.141Z,14.00
2022-10-18T22:39:21.627Z,14.00
2022-10-18T22:41:52.007Z,13.93
2022-10-18T22:44:18.349Z,13.88
2022-10-18T22:46:44.767Z,13.90
2022-10-18T22:49:11.735Z,13.85
2022-10-18T22:51:38.086Z,13.86
2022-10-18T22:54:04.506Z,13.83
2022-10-18T22:56:30.852Z,13.77
2022-10-18T22:58:57.270Z,13.74
2022-10-18T23:01:23.955Z,13.73
2022-10-18T23:03:53.908Z,13.68
2022-10-18T23:06:25.577Z,13.68
2022-10-18T23:08:52.889Z,13.66
2022-10-18T23:11:19.440Z,13.63
2022-10-18T23:13:45.869Z,13.60
2022-10-18T23:16:12.232Z,13.57
2022-10-18T23:21:07.499Z,13.54
2022-10-18T23:23:35.490Z,13.49
2022-10-18T23:26:06.015Z,13.45
2022-10-18T23:28:35.904Z,13.44
2022-10-18T23:31:09.463Z,13.40
2022-10-18T23:33:36.041Z,13.41
2022-10-18T23:36:02.804Z,13.36
2022-10-18T23:38:30.165Z,13.34
2022-10-18T23:40:56.613Z,13.32
2022-10-18T23:43:23.050Z,13.30
2022-10-18T23:45:49.418Z,13.28
2022-10-18T23:48:15.796Z,13.24
2022-10-18T23:50:42.763Z,13.22
2022-10-18T23:53:09.671Z,13.20
2022-10-18T23:55:36.035Z,13.18
2022-10-18T23:58:02.498Z,13.17
